sensor_id;sensor_type;location;lat;lon;timestamp;temperature;humidity
21092;DHT22;10704;42.678;23.288;2023-06-19T00:00:59;17.80;99.90
21092;DHT22;10704;42.678;23.288;2023-06-19T00:03:24;17.70;99.90
21092;DHT22;10704;42.678;23.288;2023-06-19T00:09:38;17.80;99.90
21092;DHT22;10704;42.678;23.288;2023-06-19T00:12:04;17.80;99.90
21092;DHT22;10704;42.678;23.288;2023-06-19T00:14:30;17.80;99.90
21092;DHT22;10704;42.678;23.288;2023-06-19T00:16:56;17.80;99.90
21092;DHT22;10704;42.678;23.288;2023-06-19T00:19:22;17.70;99.90
21092;DHT22;10704;42.678;23.288;2023-06-19T00:21:48;17.70;99.90
21092;DHT22;10704;42.678;23.288;2023-06-19T00:24:14;17.70;99.90
21092;DHT22;10704;42.678;23.288;2023-06-19T00:26:40;17.70;99.90
21092;DHT22;10704;42.678;23.288;2023-06-19T00:29:06;17.70;99.90
21092;DHT22;10704;42.678;23.288;2023-06-19T00:31:32;17.70;99.90
21092;DHT22;10704;42.678;23.288;2023-06-19T00:33:58;17.80;99.90
21092;DHT22;10704;42.678;23.288;2023-06-19T00:36:24;17.80;99.90
21092;DHT22;10704;42.678;23.288;2023-06-19T00:38:52;17.80;99.90
21092;DHT22;10704;42.678;23.288;2023-06-19T00:41:18;17.80;99.90
21092;DHT22;10704;42.678;23.288;2023-06-19T00:43:45;17.70;99.90
21092;DHT22;10704;42.678;23.288;2023-06-19T00:46:11;17.80;99.90
21092;DHT22;10704;42.678;23.288;2023-06-19T00:48:38;17.80;99.90
21092;DHT22;10704;42.678;23.288;2023-06-19T00:51:13;17.70;99.90
21092;DHT22;10704;42.678;23.288;2023-06-19T00:53:39;17.70;99.90
21092;DHT22;10704;42.678;23.288;2023-06-19T00:59:53;17.60;99.90
21092;DHT22;10704;42.678;23.288;2023-06-19T01:02:19;17.60;99.90
21092;DHT22;10704;42.678;23.288;2023-06-19T01:04:50;17.40;99.90
21092;DHT22;10704;42.678;23.288;2023-06-19T01:11:05;17.40;99.90
21092;DHT22;10704;42.678;23.288;2023-06-19T01:21:18;17.20;99.90
21092;DHT22;10704;42.678;23.288;2023-06-19T01:26:31;17.10;99.90
21092;DHT22;10704;42.678;23.288;2023-06-19T01:28:57;17.00;99.90
21092;DHT22;10704;42.678;23.288;2023-06-19T01:31:36;17.00;99.90
21092;DHT22;10704;42.678;23.288;2023-06-19T01:36:53;16.90;99.90
21092;DHT22;10704;42.678;23.288;2023-06-19T01:39:23;16.90;99.90
21092;DHT22;10704;42.678;23.288;2023-06-19T01:41:50;16.80;99.90
21092;DHT22;10704;42.678;23.288;2023-06-19T01:44:50;16.80;99.90
21092;DHT22;10704;42.678;23.288;2023-06-19T01:47:16;16.70;99.90
21092;DHT22;10704;42.678;23.288;2023-06-19T01:56:47;16.60;99.90
21092;DHT22;10704;42.678;23.288;2023-06-19T01:59:13;16.60;99.90
21092;DHT22;10704;42.678;23.288;2023-06-19T02:01:39;16.60;99.90
21092;DHT22;10704;42.678;23.288;2023-06-19T02:04:05;16.50;99.90
21092;DHT22;10704;42.678;23.288;2023-06-19T02:06:31;16.50;99.90
21092;DHT22;10704;42.678;23.288;2023-06-19T02:08:57;16.40;99.90
21092;DHT22;10704;42.678;23.288;2023-06-19T02:15:24;16.30;99.90
21092;DHT22;10704;42.678;23.288;2023-06-19T02:17:50;16.30;99.90
21092;DHT22;10704;42.678;23.288;2023-06-19T02:20:21;16.20;99.90
21092;DHT22;10704;42.678;23.288;2023-06-19T02:22:47;16.20;99.90
21092;DHT22;10704;42.678;23.288;2023-06-19T02:25:13;16.20;99.90
21092;DHT22;10704;42.678;23.288;2023-06-19T02:27:42;16.10;99.90
21092;DHT22;10704;42.678;23.288;2023-06-19T02:30:08;16.10;99.90
21092;DHT22;10704;42.678;23.288;2023-06-19T02:36:22;16.10;99.90
21092;DHT22;10704;42.678;23.288;2023-06-19T02:42:35;16.00;99.90
21092;DHT22;10704;42.678;23.288;2023-06-19T02:45:01;16.00;99.90
21092;DHT22;10704;42.678;23.288;2023-06-19T02:47:30;15.90;99.90
21092;DHT22;10704;42.678;23.288;2023-06-19T02:50:00;15.90;99.90
21092;DHT22;10704;42.678;23.288;2023-06-19T02:52:27;15.80;99.90
21092;DHT22;10704;42.678;23.288;2023-06-19T02:58:41;15.70;99.90
21092;DHT22;10704;42.678;23.288;2023-06-19T03:01:07;15.60;99.90
21092;DHT22;10704;42.678;23.288;2023-06-19T03:03:34;15.60;99.90
21092;DHT22;10704;42.678;23.288;2023-06-19T03:09:50;15.50;99.90
21092;DHT22;10704;42.678;23.288;2023-06-19T03:12:16;15.50;99.90
21092;DHT22;10704;42.678;23.288;2023-06-19T03:14:42;15.50;99.90
21092;DHT22;10704;42.678;23.288;2023-06-19T03:17:08;15.60;99.90
21092;DHT22;10704;42.678;23.288;2023-06-19T03:19:34;15.70;99.90
21092;DHT22;10704;42.678;23.288;2023-06-19T03:22:00;15.70;99.90
21092;DHT22;10704;42.678;23.288;2023-06-19T03:24:26;15.70;99.90
21092;DHT22;10704;42.678;23.288;2023-06-19T03:26:55;15.70;99.90
21092;DHT22;10704;42.678;23.288;2023-06-19T03:29:21;15.70;99.90
21092;DHT22;10704;42.678;23.288;2023-06-19T03:31:53;15.80;99.90
21092;DHT22;10704;42.678;23.288;2023-06-19T03:34:21;15.80;99.90
21092;DHT22;10704;42.678;23.288;2023-06-19T03:36:47;15.80;99.90
21092;DHT22;10704;42.678;23.288;2023-06-19T03:39:13;15.80;99.90
21092;DHT22;10704;42.678;23.288;2023-06-19T03:41:40;15.90;99.90
21092;DHT22;10704;42.678;23.288;2023-06-19T03:47:54;16.10;99.90
21092;DHT22;10704;42.678;23.288;2023-06-19T03:54:32;16.10;99.90
21092;DHT22;10704;42.678;23.288;2023-06-19T03:56:59;16.10;99.90
21092;DHT22;10704;42.678;23.288;2023-06-19T04:07:01;16.30;99.90
21092;DHT22;10704;42.678;23.288;2023-06-19T04:09:27;16.40;99.90
21092;DHT22;10704;42.678;23.288;2023-06-19T04:11:53;16.40;99.90
21092;DHT22;10704;42.678;23.288;2023-06-19T04:14:19;16.50;99.90
21092;DHT22;10704;42.678;23.288;2023-06-19T04:16:49;16.60;99.90
21092;DHT22;10704;42.678;23.288;2023-06-19T04:26:18;16.90;99.90
21092;DHT22;10704;42.678;23.288;2023-06-19T04:28:44;17.00;99.90
21092;DHT22;10704;42.678;23.288;2023-06-19T04:31:10;17.20;99.90
21092;DHT22;10704;42.678;23.288;2023-06-19T04:33:36;17.30;99.90
21092;DHT22;10704;42.678;23.288;2023-06-19T04:36:02;17.40;99.90
21092;DHT22;10704;42.678;23.288;2023-06-19T04:38:28;17.50;99.90
21092;DHT22;10704;42.678;23.288;2023-06-19T04:40:54;17.60;99.90
21092;DHT22;10704;42.678;23.288;2023-06-19T04:43:20;17.80;99.90
21092;DHT22;10704;42.678;23.288;2023-06-19T04:45:45;17.90;99.90
21092;DHT22;10704;42.678;23.288;2023-06-19T04:48:11;18.00;99.90
21092;DHT22;10704;42.678;23.288;2023-06-19T04:50:37;18.20;99.90
21092;DHT22;10704;42.678;23.288;2023-06-19T04:53:03;18.30;99.90
21092;DHT22;10704;42.678;23.288;2023-06-19T04:55:29;18.50;99.90
21092;DHT22;10704;42.678;23.288;2023-06-19T04:57:56;18.50;99.90
21092;DHT22;10704;42.678;23.288;2023-06-19T05:00:22;18.70;99.90
21092;DHT22;10704;42.678;23.288;2023-06-19T05:02:49;18.90;99.90
21092;DHT22;10704;42.678;23.288;2023-06-19T05:05:16;19.00;99.90
21092;DHT22;10704;42.678;23.288;2023-06-19T05:15:37;19.30;99.90
21092;DHT22;10704;42.678;23.288;2023-06-19T05:18:03;19.40;99.90
21092;DHT22;10704;42.678;23.288;2023-06-19T05:20:30;19.40;99.90
21092;DHT22;10704;42.678;23.288;2023-06-19T05:22:56;19.50;99.90
21092;DHT22;10704;42.678;23.288;2023-06-19T05:25:22;19.50;99.90
21092;DHT22;10704;42.678;23.288;2023-06-19T05:27:47;19.70;99.90
21092;DHT22;10704;42.678;23.288;2023-06-19T05:30:13;19.70;99.90
21092;DHT22;10704;42.678;23.288;2023-06-19T05:36:27;20.00;99.90
21092;DHT22;10704;42.678;23.288;2023-06-19T05:38:53;19.90;99.90
21092;DHT22;10704;42.678;23.288;2023-06-19T05:48:54;20.00;99.90
21092;DHT22;10704;42.678;23.288;2023-06-19T05:51:23;20.10;99.90
21092;DHT22;10704;42.678;23.288;2023-06-19T05:53:49;20.20;99.90
21092;DHT22;10704;42.678;23.288;2023-06-19T05:56:16;20.20;99.90
21092;DHT22;10704;42.678;23.288;2023-06-19T05:58:41;20.10;99.90
21092;DHT22;10704;42.678;23.288;2023-06-19T06:01:07;20.10;99.90
21092;DHT22;10704;42.678;23.288;2023-06-19T06:03:33;20.10;99.90
21092;DHT22;10704;42.678;23.288;2023-06-19T06:05:59;20.20;99.90
21092;DHT22;10704;42.678;23.288;2023-06-19T06:08:29;20.20;99.90
21092;DHT22;10704;42.678;23.288;2023-06-19T06:10:55;20.20;99.90
21092;DHT22;10704;42.678;23.288;2023-06-19T06:13:21;20.40;99.90
21092;DHT22;10704;42.678;23.288;2023-06-19T06:15:47;20.60;99.90
21092;DHT22;10704;42.678;23.288;2023-06-19T06:18:13;20.80;99.90
21092;DHT22;10704;42.678;23.288;2023-06-19T06:20:39;20.80;99.90
21092;DHT22;10704;42.678;23.288;2023-06-19T06:23:05;20.90;99.90
21092;DHT22;10704;42.678;23.288;2023-06-19T06:25:31;20.80;99.90
21092;DHT22;10704;42.678;23.288;2023-06-19T06:27:57;20.80;99.90
21092;DHT22;10704;42.678;23.288;2023-06-19T06:30:23;20.90;99.90
21092;DHT22;10704;42.678;23.288;2023-06-19T06:32:49;20.90;99.90
21092;DHT22;10704;42.678;23.288;2023-06-19T06:35:15;21.20;99.90
21092;DHT22;10704;42.678;23.288;2023-06-19T06:37:41;21.20;99.90
21092;DHT22;10704;42.678;23.288;2023-06-19T06:40:09;21.40;99.90
21092;DHT22;10704;42.678;23.288;2023-06-19T06:42:37;21.60;99.90
21092;DHT22;10704;42.678;23.288;2023-06-19T06:45:05;21.50;99.90
21092;DHT22;10704;42.678;23.288;2023-06-19T06:47:31;21.70;99.90
21092;DHT22;10704;42.678;23.288;2023-06-19T06:49:56;21.70;99.90
21092;DHT22;10704;42.678;23.288;2023-06-19T06:52:22;21.70;99.90
21092;DHT22;10704;42.678;23.288;2023-06-19T06:54:50;21.60;99.90
21092;DHT22;10704;42.678;23.288;2023-06-19T06:57:16;21.60;99.90
21092;DHT22;10704;42.678;23.288;2023-06-19T07:00:06;21.70;99.90
21092;DHT22;10704;42.678;23.288;2023-06-19T07:02:35;21.90;99.90
21092;DHT22;10704;42.678;23.288;2023-06-19T07:08:50;22.20;99.90
21092;DHT22;10704;42.678;23.288;2023-06-19T07:11:16;22.10;99.90
21092;DHT22;10704;42.678;23.288;2023-06-19T07:13:42;21.90;99.90
21092;DHT22;10704;42.678;23.288;2023-06-19T07:19:55;22.20;99.90
21092;DHT22;10704;42.678;23.288;2023-06-19T07:26:09;22.20;99.90
21092;DHT22;10704;42.678;23.288;2023-06-19T07:28:35;22.20;99.90
21092;DHT22;10704;42.678;23.288;2023-06-19T07:31:04;22.60;99.90
21092;DHT22;10704;42.678;23.288;2023-06-19T07:33:29;23.00;99.90
21092;DHT22;10704;42.678;23.288;2023-06-19T07:35:56;23.10;99.90
21092;DHT22;10704;42.678;23.288;2023-06-19T07:38:22;23.30;99.90
21092;DHT22;10704;42.678;23.288;2023-06-19T07:44:42;23.40;99.90
21092;DHT22;10704;42.678;23.288;2023-06-19T07:47:08;23.30;99.90
21092;DHT22;10704;42.678;23.288;2023-06-19T07:49:34;23.50;99.90
21092;DHT22;10704;42.678;23.288;2023-06-19T07:52:00;23.70;99.90
21092;DHT22;10704;42.678;23.288;2023-06-19T07:54:26;23.50;99.90
21092;DHT22;10704;42.678;23.288;2023-06-19T07:56:52;23.60;99.90
21092;DHT22;10704;42.678;23.288;2023-06-19T07:59:18;24.10;99.90
21092;DHT22;10704;42.678;23.288;2023-06-19T08:01:44;24.20;99.90
21092;DHT22;10704;42.678;23.288;2023-06-19T08:04:19;23.70;99.90
21092;DHT22;10704;42.678;23.288;2023-06-19T08:06:46;24.00;99.90
21092;DHT22;10704;42.678;23.288;2023-06-19T08:12:30;24.60;98.90
21092;DHT22;10704;42.678;23.288;2023-06-19T08:14:56;24.90;97.10
21092;DHT22;10704;42.678;23.288;2023-06-19T08:17:21;24.90;95.90
21092;DHT22;10704;42.678;23.288;2023-06-19T08:19:48;24.60;94.90
21092;DHT22;10704;42.678;23.288;2023-06-19T08:22:14;24.80;95.90
21092;DHT22;10704;42.678;23.288;2023-06-19T08:24:39;25.10;94.80
21092;DHT22;10704;42.678;23.288;2023-06-19T08:27:06;25.30;92.50
21092;DHT22;10704;42.678;23.288;2023-06-19T08:29:33;25.50;91.70
21092;DHT22;10704;42.678;23.288;2023-06-19T08:31:59;25.10;91.20
21092;DHT22;10704;42.678;23.288;2023-06-19T08:34:25;24.60;91.30
21092;DHT22;10704;42.678;23.288;2023-06-19T08:36:51;24.40;91.70
21092;DHT22;10704;42.678;23.288;2023-06-19T08:39:17;24.90;92.10
21092;DHT22;10704;42.678;23.288;2023-06-19T08:41:46;24.90;91.20
21092;DHT22;10704;42.678;23.288;2023-06-19T08:44:14;24.90;90.70
21092;DHT22;10704;42.678;23.288;2023-06-19T08:46:41;25.30;90.60
21092;DHT22;10704;42.678;23.288;2023-06-19T08:49:08;25.50;87.60
21092;DHT22;10704;42.678;23.288;2023-06-19T08:51:36;25.40;86.50
21092;DHT22;10704;42.678;23.288;2023-06-19T08:54:05;25.50;88.90
21092;DHT22;10704;42.678;23.288;2023-06-19T08:56:32;25.80;89.00
21092;DHT22;10704;42.678;23.288;2023-06-19T08:59:16;26.10;86.40
21092;DHT22;10704;42.678;23.288;2023-06-19T09:01:50;26.60;83.80
21092;DHT22;10704;42.678;23.288;2023-06-19T09:04:26;26.80;85.60
21092;DHT22;10704;42.678;23.288;2023-06-19T09:07:00;26.50;86.20
21092;DHT22;10704;42.678;23.288;2023-06-19T09:09:27;26.40;86.90
21092;DHT22;10704;42.678;23.288;2023-06-19T09:12:04;25.90;84.10
21092;DHT22;10704;42.678;23.288;2023-06-19T09:14:37;26.30;83.20
21092;DHT22;10704;42.678;23.288;2023-06-19T09:17:05;26.90;80.90
21092;DHT22;10704;42.678;23.288;2023-06-19T09:19:31;27.40;78.20
21092;DHT22;10704;42.678;23.288;2023-06-19T09:22:05;27.70;77.70
21092;DHT22;10704;42.678;23.288;2023-06-19T09:24:39;28.20;78.70
21092;DHT22;10704;42.678;23.288;2023-06-19T09:27:07;28.30;75.90
21092;DHT22;10704;42.678;23.288;2023-06-19T09:29:36;27.40;74.80
21092;DHT22;10704;42.678;23.288;2023-06-19T09:34:39;27.00;79.40
21092;DHT22;10704;42.678;23.288;2023-06-19T09:37:06;27.20;76.80
21092;DHT22;10704;42.678;23.288;2023-06-19T09:39:34;27.80;76.20
21092;DHT22;10704;42.678;23.288;2023-06-19T09:49:38;28.00;76.90
21092;DHT22;10704;42.678;23.288;2023-06-19T09:52:05;28.00;75.10
21092;DHT22;10704;42.678;23.288;2023-06-19T09:54:31;28.70;77.00
21092;DHT22;10704;42.678;23.288;2023-06-19T09:56:58;28.60;73.40
21092;DHT22;10704;42.678;23.288;2023-06-19T09:59:28;28.30;72.00
21092;DHT22;10704;42.678;23.288;2023-06-19T10:01:54;28.40;73.30
21092;DHT22;10704;42.678;23.288;2023-06-19T10:08:08;27.60;73.00
21092;DHT22;10704;42.678;23.288;2023-06-19T10:11:00;27.40;70.60
21092;DHT22;10704;42.678;23.288;2023-06-19T10:13:45;28.40;71.40
21092;DHT22;10704;42.678;23.288;2023-06-19T10:16:21;29.60;68.90
21092;DHT22;10704;42.678;23.288;2023-06-19T10:18:48;28.90;68.60
21092;DHT22;10704;42.678;23.288;2023-06-19T10:21:18;29.00;67.50
21092;DHT22;10704;42.678;23.288;2023-06-19T10:23:53;29.20;68.90
21092;DHT22;10704;42.678;23.288;2023-06-19T10:26:20;29.90;68.00
21092;DHT22;10704;42.678;23.288;2023-06-19T10:28:54;30.40;66.10
21092;DHT22;10704;42.678;23.288;2023-06-19T10:31:20;29.10;68.20
21092;DHT22;10704;42.678;23.288;2023-06-19T10:33:46;28.20;69.60
21092;DHT22;10704;42.678;23.288;2023-06-19T10:39:59;29.10;70.60
21092;DHT22;10704;42.678;23.288;2023-06-19T10:42:34;29.20;69.20
21092;DHT22;10704;42.678;23.288;2023-06-19T10:45:05;29.10;69.10
21092;DHT22;10704;42.678;23.288;2023-06-19T10:47:32;28.60;70.00
21092;DHT22;10704;42.678;23.288;2023-06-19T10:49:58;29.50;70.50
21092;DHT22;10704;42.678;23.288;2023-06-19T10:52:24;29.10;68.20
21092;DHT22;10704;42.678;23.288;2023-06-19T10:54:54;29.90;69.70
21092;DHT22;10704;42.678;23.288;2023-06-19T10:57:30;30.40;68.00
21092;DHT22;10704;42.678;23.288;2023-06-19T10:59:57;30.00;68.80
21092;DHT22;10704;42.678;23.288;2023-06-19T11:06:10;29.60;68.60
21092;DHT22;10704;42.678;23.288;2023-06-19T11:08:36;29.50;71.70
21092;DHT22;10704;42.678;23.288;2023-06-19T11:11:02;29.20;70.30
21092;DHT22;10704;42.678;23.288;2023-06-19T11:13:29;28.90;70.40
21092;DHT22;10704;42.678;23.288;2023-06-19T11:15:55;30.10;71.40
21092;DHT22;10704;42.678;23.288;2023-06-19T11:18:20;30.40;68.80
21092;DHT22;10704;42.678;23.288;2023-06-19T11:20:51;30.50;69.80
21092;DHT22;10704;42.678;23.288;2023-06-19T11:23:25;30.70;68.50
21092;DHT22;10704;42.678;23.288;2023-06-19T11:25:51;30.10;69.50
21092;DHT22;10704;42.678;23.288;2023-06-19T11:28:17;29.60;70.60
21092;DHT22;10704;42.678;23.288;2023-06-19T11:30:49;29.70;70.50
21092;DHT22;10704;42.678;23.288;2023-06-19T11:37:15;30.10;69.80
21092;DHT22;10704;42.678;23.288;2023-06-19T11:39:44;29.50;71.70
21092;DHT22;10704;42.678;23.288;2023-06-19T11:42:11;29.30;71.90
21092;DHT22;10704;42.678;23.288;2023-06-19T11:44:59;29.30;72.40
21092;DHT22;10704;42.678;23.288;2023-06-19T11:47:32;28.50;73.10
21092;DHT22;10704;42.678;23.288;2023-06-19T11:49:59;28.90;74.80
21092;DHT22;10704;42.678;23.288;2023-06-19T11:52:28;29.80;72.20
21092;DHT22;10704;42.678;23.288;2023-06-19T12:01:47;30.30;70.70
21092;DHT22;10704;42.678;23.288;2023-06-19T12:04:19;30.40;70.10
21092;DHT22;10704;42.678;23.288;2023-06-19T12:06:45;29.60;71.60
21092;DHT22;10704;42.678;23.288;2023-06-19T12:09:11;29.40;73.60
21092;DHT22;10704;42.678;23.288;2023-06-19T12:11:37;29.30;74.80
21092;DHT22;10704;42.678;23.288;2023-06-19T12:14:03;28.70;73.70
21092;DHT22;10704;42.678;23.288;2023-06-19T12:24:05;29.30;73.10
21092;DHT22;10704;42.678;23.288;2023-06-19T12:26:31;29.10;75.00
21092;DHT22;10704;42.678;23.288;2023-06-19T12:29:03;29.20;74.50
21092;DHT22;10704;42.678;23.288;2023-06-19T12:31:32;29.70;73.10
21092;DHT22;10704;42.678;23.288;2023-06-19T12:33:58;29.00;73.50
21092;DHT22;10704;42.678;23.288;2023-06-19T12:36:24;28.60;74.10
21092;DHT22;10704;42.678;23.288;2023-06-19T12:50:12;28.30;75.50
21092;DHT22;10704;42.678;23.288;2023-06-19T12:52:38;28.40;74.80
21092;DHT22;10704;42.678;23.288;2023-06-19T12:55:04;27.90;75.30
21092;DHT22;10704;42.678;23.288;2023-06-19T12:57:30;28.10;76.10
21092;DHT22;10704;42.678;23.288;2023-06-19T12:59:56;28.70;74.50
21092;DHT22;10704;42.678;23.288;2023-06-19T13:02:22;28.50;72.60
21092;DHT22;10704;42.678;23.288;2023-06-19T13:04:48;28.30;71.90
21092;DHT22;10704;42.678;23.288;2023-06-19T13:07:14;28.40;71.70
21092;DHT22;10704;42.678;23.288;2023-06-19T13:09:41;28.20;72.20
21092;DHT22;10704;42.678;23.288;2023-06-19T13:12:07;27.70;72.40
21092;DHT22;10704;42.678;23.288;2023-06-19T13:14:33;27.80;73.20
21092;DHT22;10704;42.678;23.288;2023-06-19T13:17:00;28.10;73.10
21092;DHT22;10704;42.678;23.288;2023-06-19T13:19:26;28.00;72.30
21092;DHT22;10704;42.678;23.288;2023-06-19T13:21:52;28.00;72.80
21092;DHT22;10704;42.678;23.288;2023-06-19T13:24:18;28.40;71.50
21092;DHT22;10704;42.678;23.288;2023-06-19T13:26:44;28.00;71.10
21092;DHT22;10704;42.678;23.288;2023-06-19T13:29:13;28.10;71.60
21092;DHT22;10704;42.678;23.288;2023-06-19T13:31:39;28.50;71.10
21092;DHT22;10704;42.678;23.288;2023-06-19T13:34:05;28.80;69.00
21092;DHT22;10704;42.678;23.288;2023-06-19T13:36:30;29.20;70.10
21092;DHT22;10704;42.678;23.288;2023-06-19T13:38:56;28.70;68.10
21092;DHT22;10704;42.678;23.288;2023-06-19T13:41:24;29.00;68.60
21092;DHT22;10704;42.678;23.288;2023-06-19T13:43:51;28.80;68.10
21092;DHT22;10704;42.678;23.288;2023-06-19T13:53:53;28.00;68.70
21092;DHT22;10704;42.678;23.288;2023-06-19T13:56:20;28.10;69.20
21092;DHT22;10704;42.678;23.288;2023-06-19T13:58:46;29.10;67.20
21092;DHT22;10704;42.678;23.288;2023-06-19T14:01:12;29.10;66.50
21092;DHT22;10704;42.678;23.288;2023-06-19T14:07:00;28.50;68.70
21092;DHT22;10704;42.678;23.288;2023-06-19T14:09:46;28.50;67.90
21092;DHT22;10704;42.678;23.288;2023-06-19T14:12:13;28.60;67.50
21092;DHT22;10704;42.678;23.288;2023-06-19T14:14:40;29.20;67.80
21092;DHT22;10704;42.678;23.288;2023-06-19T14:17:06;29.20;66.40
21092;DHT22;10704;42.678;23.288;2023-06-19T14:19:32;28.90;66.40
21092;DHT22;10704;42.678;23.288;2023-06-19T14:21:58;28.90;67.80
21092;DHT22;10704;42.678;23.288;2023-06-19T14:24:24;28.70;66.70
21092;DHT22;10704;42.678;23.288;2023-06-19T14:26:50;28.40;68.20
21092;DHT22;10704;42.678;23.288;2023-06-19T14:29:15;28.30;67.90
21092;DHT22;10704;42.678;23.288;2023-06-19T14:31:44;28.30;69.10
21092;DHT22;10704;42.678;23.288;2023-06-19T14:34:09;29.10;67.60
21092;DHT22;10704;42.678;23.288;2023-06-19T14:36:37;29.50;67.10
21092;DHT22;10704;42.678;23.288;2023-06-19T14:39:03;29.60;66.70
21092;DHT22;10704;42.678;23.288;2023-06-19T14:44:46;28.70;65.90
21092;DHT22;10704;42.678;23.288;2023-06-19T14:47:12;27.60;68.20
21092;DHT22;10704;42.678;23.288;2023-06-19T14:49:37;27.30;69.50
21092;DHT22;10704;42.678;23.288;2023-06-19T14:52:04;27.40;69.30
21092;DHT22;10704;42.678;23.288;2023-06-19T14:54:30;27.40;69.60
21092;DHT22;10704;42.678;23.288;2023-06-19T14:56:56;27.60;69.40
21092;DHT22;10704;42.678;23.288;2023-06-19T15:03:09;27.00;71.70
21092;DHT22;10704;42.678;23.288;2023-06-19T15:05:35;27.50;72.60
21092;DHT22;10704;42.678;23.288;2023-06-19T15:08:28;27.80;71.20
21092;DHT22;10704;42.678;23.288;2023-06-19T15:10:54;28.00;71.80
21092;DHT22;10704;42.678;23.288;2023-06-19T15:13:56;27.70;72.30
21092;DHT22;10704;42.678;23.288;2023-06-19T15:16:22;28.10;73.00
21092;DHT22;10704;42.678;23.288;2023-06-19T15:19:09;28.10;73.70
21092;DHT22;10704;42.678;23.288;2023-06-19T15:21:35;28.10;74.40
21092;DHT22;10704;42.678;23.288;2023-06-19T15:24:01;27.60;74.00
21092;DHT22;10704;42.678;23.288;2023-06-19T15:26:27;27.10;75.50
21092;DHT22;10704;42.678;23.288;2023-06-19T15:28:53;27.50;76.00
21092;DHT22;10704;42.678;23.288;2023-06-19T15:31:21;27.90;75.20
21092;DHT22;10704;42.678;23.288;2023-06-19T15:33:50;27.40;75.00
21092;DHT22;10704;42.678;23.288;2023-06-19T15:36:16;27.00;76.30
21092;DHT22;10704;42.678;23.288;2023-06-19T15:38:43;26.70;77.30
21092;DHT22;10704;42.678;23.288;2023-06-19T15:41:09;27.00;77.40
21092;DHT22;10704;42.678;23.288;2023-06-19T15:43:35;27.00;77.60
21092;DHT22;10704;42.678;23.288;2023-06-19T15:46:01;27.10;78.00
21092;DHT22;10704;42.678;23.288;2023-06-19T15:48:28;27.20;77.30
21092;DHT22;10704;42.678;23.288;2023-06-19T15:50:54;27.50;76.50
21092;DHT22;10704;42.678;23.288;2023-06-19T15:53:20;27.30;76.70
21092;DHT22;10704;42.678;23.288;2023-06-19T15:55:46;27.30;77.40
21092;DHT22;10704;42.678;23.288;2023-06-19T15:58:12;27.30;75.90
21092;DHT22;10704;42.678;23.288;2023-06-19T16:00:38;27.10;77.00
21092;DHT22;10704;42.678;23.288;2023-06-19T16:03:04;27.20;77.40
21092;DHT22;10704;42.678;23.288;2023-06-19T16:05:31;27.30;76.90
21092;DHT22;10704;42.678;23.288;2023-06-19T16:07:57;27.40;77.40
21092;DHT22;10704;42.678;23.288;2023-06-19T16:10:23;27.20;77.50
21092;DHT22;10704;42.678;23.288;2023-06-19T16:12:48;27.20;78.10
21092;DHT22;10704;42.678;23.288;2023-06-19T16:15:17;27.20;78.40
21092;DHT22;10704;42.678;23.288;2023-06-19T16:17:50;27.20;77.90
21092;DHT22;10704;42.678;23.288;2023-06-19T16:20:16;27.00;78.40
21092;DHT22;10704;42.678;23.288;2023-06-19T16:22:42;27.10;79.30
21092;DHT22;10704;42.678;23.288;2023-06-19T16:25:09;27.30;77.80
21092;DHT22;10704;42.678;23.288;2023-06-19T16:27:36;27.50;78.10
21092;DHT22;10704;42.678;23.288;2023-06-19T16:30:02;27.10;77.80
21092;DHT22;10704;42.678;23.288;2023-06-19T16:32:28;27.00;78.20
21092;DHT22;10704;42.678;23.288;2023-06-19T16:34:54;26.60;77.20
21092;DHT22;10704;42.678;23.288;2023-06-19T16:37:20;26.70;77.00
21092;DHT22;10704;42.678;23.288;2023-06-19T16:39:46;26.80;76.90
21092;DHT22;10704;42.678;23.288;2023-06-19T16:42:12;26.70;77.60
21092;DHT22;10704;42.678;23.288;2023-06-19T16:44:40;26.80;77.50
21092;DHT22;10704;42.678;23.288;2023-06-19T16:47:06;27.00;77.50
21092;DHT22;10704;42.678;23.288;2023-06-19T16:49:32;26.80;78.20
21092;DHT22;10704;42.678;23.288;2023-06-19T16:51:58;26.80;79.00
21092;DHT22;10704;42.678;23.288;2023-06-19T16:54:23;26.60;79.40
21092;DHT22;10704;42.678;23.288;2023-06-19T16:56:49;26.40;80.10
21092;DHT22;10704;42.678;23.288;2023-06-19T16:59:19;26.70;80.20
21092;DHT22;10704;42.678;23.288;2023-06-19T17:01:45;26.30;80.70
21092;DHT22;10704;42.678;23.288;2023-06-19T17:07:58;25.60;83.30
21092;DHT22;10704;42.678;23.288;2023-06-19T17:10:24;25.50;84.90
21092;DHT22;10704;42.678;23.288;2023-06-19T17:12:52;25.30;85.10
21092;DHT22;10704;42.678;23.288;2023-06-19T17:15:18;25.50;85.50
21092;DHT22;10704;42.678;23.288;2023-06-19T17:17:43;25.30;86.20
21092;DHT22;10704;42.678;23.288;2023-06-19T17:20:10;24.90;86.40
21092;DHT22;10704;42.678;23.288;2023-06-19T17:22:37;24.80;87.20
21092;DHT22;10704;42.678;23.288;2023-06-19T17:25:04;24.80;87.30
21092;DHT22;10704;42.678;23.288;2023-06-19T17:27:29;24.70;87.80
21092;DHT22;10704;42.678;23.288;2023-06-19T17:29:55;24.40;88.50
21092;DHT22;10704;42.678;23.288;2023-06-19T17:32:21;24.40;89.20
21092;DHT22;10704;42.678;23.288;2023-06-19T17:38:06;24.20;90.20
21092;DHT22;10704;42.678;23.288;2023-06-19T17:44:19;24.00;90.90
21092;DHT22;10704;42.678;23.288;2023-06-19T17:46:51;24.00;90.90
21092;DHT22;10704;42.678;23.288;2023-06-19T17:49:17;23.80;91.40
21092;DHT22;10704;42.678;23.288;2023-06-19T17:51:48;23.70;91.80
21092;DHT22;10704;42.678;23.288;2023-06-19T17:54:14;23.50;92.20
21092;DHT22;10704;42.678;23.288;2023-06-19T17:56:40;23.40;92.80
21092;DHT22;10704;42.678;23.288;2023-06-19T17:59:05;23.30;93.20
21092;DHT22;10704;42.678;23.288;2023-06-19T18:01:31;23.20;93.60
21092;DHT22;10704;42.678;23.288;2023-06-19T18:11:02;22.80;95.80
21092;DHT22;10704;42.678;23.288;2023-06-19T18:13:28;22.60;96.80
21092;DHT22;10704;42.678;23.288;2023-06-19T18:15:54;22.50;97.50
21092;DHT22;10704;42.678;23.288;2023-06-19T18:18:20;22.50;98.20
21092;DHT22;10704;42.678;23.288;2023-06-19T18:20:46;22.40;99.40
21092;DHT22;10704;42.678;23.288;2023-06-19T18:26:59;22.20;99.90
21092;DHT22;10704;42.678;23.288;2023-06-19T18:29:25;22.10;99.90
21092;DHT22;10704;42.678;23.288;2023-06-19T18:35:43;21.90;99.90
21092;DHT22;10704;42.678;23.288;2023-06-19T18:38:09;21.80;99.90
21092;DHT22;10704;42.678;23.288;2023-06-19T18:40:38;21.90;99.90
21092;DHT22;10704;42.678;23.288;2023-06-19T18:43:05;21.80;99.90